createdAt,value
2022-11-09T00:00:50.661Z,7.40
2022-11-09T00:03:18.842Z,7.50
2022-11-09T00:05:57.299Z,7.40
2022-11-09T00:08:25.295Z,7.40
2022-11-09T00:10:53.101Z,7.40
2022-11-09T00:13:21.224Z,7.40
2022-11-09T00:15:50.046Z,7.40
2022-11-09T00:18:18.685Z,7.30
2022-11-09T00:20:48.288Z,7.40
2022-11-09T00:23:19.027Z,7.30
2022-11-09T00:25:47.433Z,7.30
2022-11-09T00:28:15.817Z,7.20
2022-11-09T00:30:44.760Z,7.20
2022-11-09T00:33:12.521Z,7.30
2022-11-09T00:35:40.452Z,7.20
2022-11-09T00:38:08.376Z,7.30
2022-11-09T00:40:37.640Z,7.20
2022-11-09T00:43:05.467Z,7.20
2022-11-09T00:45:33.350Z,7.20
2022-11-09T00:48:01.085Z,7.10
2022-11-09T00:50:29.020Z,7.10
2022-11-09T00:52:56.907Z,7.10
2022-11-09T00:55:24.950Z,7.10
2022-11-09T00:57:54.360Z,7.10
2022-11-09T01:00:24.199Z,7.10
2022-11-09T01:02:53.377Z,7.10
2022-11-09T01:05:23.538Z,7.10
2022-11-09T01:07:51.465Z,7.10
2022-11-09T01:10:20.392Z,7.10
2022-11-09T01:12:48.313Z,7.00
2022-11-09T01:15:21.992Z,7.00
2022-11-09T01:17:50.292Z,7.10
2022-11-09T01:20:18.465Z,7.00
2022-11-09T01:22:46.239Z,7.00
2022-11-09T01:25:15.376Z,7.00
2022-11-09T01:27:43.183Z,6.90
2022-11-09T01:30:11.872Z,6.90
2022-11-09T01:32:41.157Z,6.90
2022-11-09T01:35:09.738Z,6.90
2022-11-09T01:37:37.500Z,6.90
2022-11-09T01:40:06.228Z,6.90
2022-11-09T01:42:38.154Z,6.90
2022-11-09T01:45:25.310Z,6.90
2022-11-09T01:48:02.984Z,6.80
2022-11-09T01:50:39.060Z,6.90
2022-11-09T01:53:11.176Z,6.80
2022-11-09T01:55:39.190Z,6.80
2022-11-09T01:58:11.107Z,6.70
2022-11-09T02:00:42.340Z,6.80
2022-11-09T02:03:16.825Z,6.80
2022-11-09T02:05:45.997Z,6.80
2022-11-09T02:08:17.368Z,6.70
2022-11-09T02:10:52.081Z,6.70
2022-11-09T02:13:23.231Z,6.70
2022-11-09T02:15:53.222Z,6.70
2022-11-09T02:18:22.885Z,6.70
2022-11-09T02:20:54.020Z,6.60
2022-11-09T02:23:22.796Z,6.60
2022-11-09T02:25:54.989Z,6.60
2022-11-09T02:28:23.653Z,6.50
2022-11-09T02:30:55.089Z,6.50
2022-11-09T02:33:22.973Z,6.60
2022-11-09T02:35:52.137Z,6.50
2022-11-09T02:38:19.942Z,6.50
2022-11-09T02:40:51.054Z,6.50
2022-11-09T02:43:22.611Z,6.40
2022-11-09T02:45:50.608Z,6.40
2022-11-09T02:48:18.433Z,6.40
2022-11-09T02:50:46.213Z,6.30
2022-11-09T02:53:15.343Z,6.40
2022-11-09T02:55:43.143Z,6.30
2022-11-09T02:58:11.014Z,6.30
2022-11-09T03:00:38.892Z,6.30
2022-11-09T03:03:07.198Z,6.30
2022-11-09T03:05:35.014Z,6.30
2022-11-09T03:08:03.018Z,6.30
2022-11-09T03:10:32.067Z,6.30
2022-11-09T03:12:59.925Z,6.20
2022-11-09T03:15:27.667Z,6.30
2022-11-09T03:17:55.445Z,6.20
2022-11-09T03:20:23.230Z,6.20
2022-11-09T03:22:50.954Z,6.20
2022-11-09T03:25:18.839Z,6.20
2022-11-09T03:27:47.946Z,6.20
2022-11-09T03:30:18.842Z,6.20
2022-11-09T03:32:50.372Z,6.10
2022-11-09T03:35:18.444Z,6.10
2022-11-09T03:37:46.387Z,6.10
2022-11-09T03:40:14.205Z,6.10
2022-11-09T03:42:45.133Z,6.10
2022-11-09T03:45:14.822Z,6.10
2022-11-09T03:47:42.689Z,6.10
2022-11-09T03:50:12.231Z,6.00
2022-11-09T03:52:40.131Z,6.00
2022-11-09T03:55:08.963Z,6.00
2022-11-09T03:57:36.807Z,6.00
2022-11-09T04:00:05.891Z,6.00
2022-11-09T04:02:35.105Z,6.00
2022-11-09T04:05:03.029Z,6.00
2022-11-09T04:07:30.836Z,6.00
2022-11-09T04:09:58.664Z,5.90
2022-11-09T04:12:27.742Z,5.90
2022-11-09T04:14:55.473Z,5.90
2022-11-09T04:17:24.008Z,5.90
2022-11-09T04:19:53.140Z,5.90
2022-11-09T04:22:20.982Z,5.90
2022-11-09T04:24:49.072Z,5.90
2022-11-09T04:27:17.609Z,5.90
2022-11-09T04:29:45.520Z,5.90
2022-11-09T04:32:13.315Z,5.80
2022-11-09T04:34:41.410Z,5.80
2022-11-09T04:37:11.029Z,5.90
2022-11-09T04:39:38.807Z,5.80
2022-11-09T04:42:07.473Z,5.80
2022-11-09T04:44:36.048Z,5.80
2022-11-09T04:47:03.812Z,5.80
2022-11-09T04:49:32.632Z,5.80
2022-11-09T04:52:00.416Z,5.70
2022-11-09T04:54:29.623Z,5.70
2022-11-09T04:56:57.498Z,5.70
2022-11-09T04:59:25.265Z,5.70
2022-11-09T05:01:53.062Z,5.70
2022-11-09T05:04:22.489Z,5.70
2022-11-09T05:06:50.434Z,5.70
2022-11-09T05:09:18.760Z,5.70
2022-11-09T05:11:47.897Z,5.70
2022-11-09T05:14:16.681Z,5.60
2022-11-09T05:16:46.774Z,5.60
2022-11-09T05:19:15.102Z,5.60
2022-11-09T05:21:43.036Z,5.60
2022-11-09T05:24:09.868Z,5.60
2022-11-09T05:26:39.824Z,5.60
2022-11-09T05:29:12.640Z,5.60
2022-11-09T05:31:43.670Z,5.60
2022-11-09T05:34:14.384Z,5.60
2022-11-09T05:36:42.137Z,5.60
2022-11-09T05:39:10.858Z,5.60
2022-11-09T05:41:38.615Z,5.60
2022-11-09T05:44:07.844Z,5.60
2022-11-09T05:46:35.940Z,5.60
2022-11-09T05:49:03.756Z,5.60
2022-11-09T05:51:31.588Z,5.60
2022-11-09T05:53:59.977Z,5.60
2022-11-09T05:56:27.756Z,5.60
2022-11-09T05:58:55.517Z,5.60
2022-11-09T06:01:24.660Z,5.60
2022-11-09T06:03:55.056Z,5.60
2022-11-09T06:06:23.004Z,5.60
2022-11-09T06:08:51.105Z,5.60
2022-11-09T06:11:23.986Z,5.60
2022-11-09T06:13:52.798Z,5.60
2022-11-09T06:16:21.106Z,5.60
2022-11-09T06:18:50.468Z,5.60
2022-11-09T06:21:18.411Z,5.60
2022-11-09T06:23:46.216Z,5.60
2022-11-09T06:26:14.583Z,5.60
2022-11-09T06:28:42.984Z,5.60
2022-11-09T06:31:16.164Z,5.50
2022-11-09T06:33:44.116Z,5.50
2022-11-09T06:36:13.873Z,5.60
2022-11-09T06:38:42.147Z,5.60
2022-11-09T06:41:10.943Z,5.60
2022-11-09T06:43:38.731Z,5.70
2022-11-09T06:46:07.351Z,5.70
2022-11-09T06:48:35.277Z,5.80
2022-11-09T06:51:03.628Z,5.80
2022-11-09T06:53:33.451Z,5.80
2022-11-09T06:56:02.472Z,5.80
2022-11-09T06:58:31.212Z,5.90
2022-11-09T07:00:59.319Z,5.70
2022-11-09T07:03:27.571Z,5.90
2022-11-09T07:05:55.287Z,5.80
2022-11-09T07:08:23.086Z,5.70
2022-11-09T07:10:52.160Z,5.60
2022-11-09T07:13:20.442Z,5.60
2022-11-09T07:15:54.194Z,5.70
2022-11-09T07:18:21.988Z,5.70
2022-11-09T07:20:49.768Z,5.70
2022-11-09T07:23:17.819Z,5.70
2022-11-09T07:25:45.967Z,5.80
2022-11-09T07:28:15.258Z,5.80
2022-11-09T07:30:43.029Z,5.80
2022-11-09T07:33:18.041Z,5.80
2022-11-09T07:35:46.250Z,5.80
2022-11-09T07:38:15.661Z,5.80
2022-11-09T07:40:44.223Z,5.90
2022-11-09T07:43:13.532Z,5.90
2022-11-09T07:45:42.823Z,6.00
2022-11-09T07:48:11.929Z,6.10
2022-11-09T07:50:40.928Z,6.20
2022-11-09T07:53:10.008Z,6.40
2022-11-09T07:55:37.843Z,6.50
2022-11-09T07:58:08.089Z,6.40
2022-11-09T08:00:37.856Z,6.30
2022-11-09T08:03:07.031Z,6.30
2022-11-09T08:05:35.778Z,6.30
2022-11-09T08:08:05.791Z,6.40
2022-11-09T08:10:35.153Z,6.60
2022-11-09T08:13:04.939Z,6.70
2022-11-09T08:15:33.304Z,6.70
2022-11-09T08:18:02.197Z,6.50
2022-11-09T08:20:31.984Z,6.40
2022-11-09T08:23:03.970Z,6.30
2022-11-09T08:25:32.852Z,6.30
2022-11-09T08:28:00.617Z,6.30
2022-11-09T08:30:28.621Z,6.30
2022-11-09T08:32:56.457Z,6.40
2022-11-09T08:35:25.899Z,6.40
2022-11-09T08:37:55.511Z,6.50
2022-11-09T08:40:25.387Z,6.70
2022-11-09T08:42:53.797Z,6.80
2022-11-09T08:45:22.260Z,7.10
2022-11-09T08:47:50.044Z,7.10
2022-11-09T08:50:18.055Z,7.40
2022-11-09T08:52:45.870Z,7.70
2022-11-09T08:55:15.078Z,8.00
2022-11-09T08:57:43.011Z,7.90
2022-11-09T09:00:11.958Z,8.10
2022-11-09T09:02:39.752Z,8.30
2022-11-09T09:05:08.058Z,8.30
2022-11-09T09:07:35.879Z,8.30
2022-11-09T09:10:04.397Z,8.40
2022-11-09T09:12:33.549Z,8.40
2022-11-09T09:15:01.477Z,8.50
2022-11-09T09:17:29.528Z,8.60
2022-11-09T09:19:57.305Z,8.80
2022-11-09T09:22:25.149Z,8.80
2022-11-09T09:24:53.627Z,8.90
2022-11-09T09:27:21.924Z,9.10
2022-11-09T09:29:51.089Z,9.10
2022-11-09T09:32:18.897Z,9.30
2022-11-09T09:34:46.659Z,9.50
2022-11-09T09:37:14.424Z,9.60
2022-11-09T09:39:42.158Z,9.50
2022-11-09T09:42:16.711Z,9.60
2022-11-09T09:44:48.405Z,9.90
2022-11-09T09:47:23.917Z,10.00
2022-11-09T09:49:56.546Z,10.00
2022-11-09T09:52:32.251Z,10.10
2022-11-09T09:55:07.353Z,10.20
2022-11-09T09:57:41.678Z,10.30
2022-11-09T10:00:20.704Z,10.30
2022-11-09T10:02:50.823Z,10.20
2022-11-09T10:05:19.909Z,10.50
2022-11-09T10:07:55.772Z,10.70
2022-11-09T10:10:44.298Z,10.80
2022-11-09T10:13:39.564Z,10.80
2022-11-09T10:16:13.037Z,10.90
2022-11-09T10:19:05.522Z,10.60
2022-11-09T10:21:45.179Z,10.60
2022-11-09T10:24:26.360Z,10.80
2022-11-09T10:26:57.580Z,10.60
2022-11-09T10:29:27.317Z,10.40
2022-11-09T10:31:58.574Z,11.10
2022-11-09T10:34:40.600Z,11.30
2022-11-09T10:37:13.812Z,11.10
2022-11-09T10:39:45.479Z,11.40
2022-11-09T10:42:13.348Z,11.50
2022-11-09T10:44:41.080Z,11.80
2022-11-09T10:47:11.173Z,11.90
2022-11-09T10:49:41.657Z,11.90
2022-11-09T10:52:42.993Z,11.60
2022-11-09T10:55:24.120Z,11.50
2022-11-09T10:57:56.014Z,11.80
2022-11-09T11:00:24.124Z,11.90
2022-11-09T11:02:53.141Z,12.40
2022-11-09T11:05:32.099Z,12.00
2022-11-09T11:08:13.051Z,12.10
2022-11-09T11:10:40.809Z,12.00
2022-11-09T11:13:23.682Z,12.40
2022-11-09T11:15:52.504Z,12.40
2022-11-09T11:18:25.344Z,12.40
2022-11-09T11:21:17.462Z,12.70
2022-11-09T11:23:46.423Z,12.40
2022-11-09T11:26:26.122Z,12.20
2022-11-09T11:28:58.959Z,12.10
2022-11-09T11:31:26.910Z,12.10
2022-11-09T11:33:54.751Z,12.40
2022-11-09T11:36:34.312Z,12.60
2022-11-09T11:39:13.164Z,12.50
2022-11-09T11:42:00.893Z,12.80
2022-11-09T11:44:54.670Z,12.30
2022-11-09T11:47:36.061Z,11.90
2022-11-09T11:50:28.958Z,12.20
2022-11-09T11:53:09.999Z,12.50
2022-11-09T11:56:13.177Z,12.60
2022-11-09T11:58:51.462Z,12.70
2022-11-09T12:01:32.809Z,12.90
2022-11-09T12:04:16.924Z,12.90
2022-11-09T12:07:01.677Z,12.80
2022-11-09T12:09:54.688Z,12.90
2022-11-09T12:12:35.730Z,13.30
2022-11-09T12:15:22.916Z,12.90
2022-11-09T12:18:00.015Z,12.70
2022-11-09T12:20:32.336Z,12.80
2022-11-09T12:23:16.935Z,12.80
2022-11-09T12:25:51.185Z,12.90
2022-11-09T12:28:41.999Z,13.10
2022-11-09T12:31:24.704Z,13.10
2022-11-09T12:33:58.637Z,12.90
2022-11-09T12:36:32.480Z,13.10
2022-11-09T12:39:05.021Z,12.90
2022-11-09T12:41:37.971Z,13.30
2022-11-09T12:44:16.914Z,13.50
2022-11-09T12:46:49.669Z,13.50
2022-11-09T12:49:31.205Z,13.40
2022-11-09T12:51:59.320Z,13.50
2022-11-09T12:54:27.743Z,13.50
2022-11-09T12:56:59.225Z,13.50
2022-11-09T12:59:38.608Z,13.30
2022-11-09T13:02:06.856Z,13.30
2022-11-09T13:04:34.748Z,13.50
2022-11-09T13:07:27.245Z,13.60
2022-11-09T13:09:56.123Z,13.50
2022-11-09T13:12:42.673Z,13.40
2022-11-09T13:15:25.151Z,13.50
2022-11-09T13:18:00.659Z,13.60
2022-11-09T13:20:59.973Z,13.70
2022-11-09T13:23:59.341Z,13.70
2022-11-09T13:26:25.882Z,13.70
2022-11-09T13:29:11.080Z,13.60
2022-11-09T13:32:01.875Z,13.70
2022-11-09T13:34:44.652Z,13.50
2022-11-09T13:37:38.602Z,13.60
2022-11-09T13:40:51.262Z,13.40
2022-11-09T13:43:25.336Z,13.40
2022-11-09T13:45:56.888Z,13.30
2022-11-09T13:48:42.650Z,13.40
2022-11-09T13:51:13.329Z,13.50
2022-11-09T13:53:56.091Z,13.50
2022-11-09T13:56:28.939Z,13.50
2022-11-09T13:59:00.447Z,13.60
2022-11-09T14:01:34.251Z,13.60
2022-11-09T14:04:04.948Z,13.60
2022-11-09T14:06:34.448Z,13.50
2022-11-09T14:09:04.004Z,13.50
2022-11-09T14:11:51.696Z,13.50
2022-11-09T14:14:46.236Z,13.40
2022-11-09T14:17:22.715Z,13.50
2022-11-09T14:20:00.574Z,13.30
2022-11-09T14:22:34.020Z,13.30
2022-11-09T14:25:06.499Z,13.30
2022-11-09T14:27:34.267Z,13.30
2022-11-09T14:30:02.535Z,13.30
2022-11-09T14:32:35.478Z,13.40
2022-11-09T14:35:20.105Z,13.30
2022-11-09T14:37:48.094Z,13.20
2022-11-09T14:40:20.647Z,13.20
2022-11-09T14:42:51.696Z,13.20
2022-11-09T14:45:19.961Z,13.30
2022-11-09T14:47:51.549Z,13.30
2022-11-09T14:50:23.183Z,13.10
2022-11-09T14:52:53.091Z,13.10
2022-11-09T14:55:22.874Z,13.10
2022-11-09T14:57:53.215Z,13.00
2022-11-09T15:00:27.498Z,12.90
2022-11-09T15:02:57.416Z,12.80
2022-11-09T15:05:39.850Z,12.80
2022-11-09T15:08:16.631Z,12.80
2022-11-09T15:10:50.579Z,12.70
2022-11-09T15:13:19.140Z,12.60
2022-11-09T15:15:52.690Z,12.40
2022-11-09T15:18:30.284Z,12.40
2022-11-09T15:21:16.073Z,12.30
2022-11-09T15:23:45.715Z,12.30
2022-11-09T15:26:29.190Z,12.20
2022-11-09T15:28:56.962Z,12.10
2022-11-09T15:31:28.004Z,12.10
2022-11-09T15:33:58.490Z,12.00
2022-11-09T15:36:32.640Z,12.00
2022-11-09T15:39:05.108Z,11.90
2022-11-09T15:41:32.892Z,11.80
2022-11-09T15:44:00.819Z,11.60
2022-11-09T15:46:37.070Z,11.60
2022-11-09T15:49:18.168Z,11.50
2022-11-09T15:51:46.550Z,11.50
2022-11-09T15:54:14.844Z,11.40
2022-11-09T15:56:43.196Z,11.40
2022-11-09T15:59:19.123Z,11.40
2022-11-09T16:01:47.391Z,11.40
2022-11-09T16:04:16.566Z,11.30
2022-11-09T16:06:46.756Z,11.30
2022-11-09T16:09:15.201Z,11.30
2022-11-09T16:11:42.974Z,11.20
2022-11-09T16:14:10.941Z,11.30
2022-11-09T16:16:38.803Z,11.30
2022-11-09T16:19:06.657Z,11.20
2022-11-09T16:21:35.832Z,11.20
2022-11-09T16:24:03.641Z,11.30
2022-11-09T16:26:31.920Z,11.20
2022-11-09T16:29:00.377Z,11.20
2022-11-09T16:31:50.289Z,11.20
2022-11-09T16:34:16.117Z,11.20
2022-11-09T16:36:49.914Z,11.20
2022-11-09T16:39:21.969Z,11.20
2022-11-09T16:41:51.065Z,11.20
2022-11-09T16:44:22.835Z,11.20
2022-11-09T16:46:52.005Z,11.20
2022-11-09T16:49:19.888Z,11.20
2022-11-09T16:51:49.031Z,11.10
2022-11-09T16:54:16.733Z,11.20
2022-11-09T16:56:44.881Z,11.20
2022-11-09T16:59:12.805Z,11.20
2022-11-09T17:01:40.760Z,11.20
2022-11-09T17:04:08.634Z,11.20
2022-11-09T17:06:37.020Z,11.20
2022-11-09T17:09:06.214Z,11.20
2022-11-09T17:11:34.052Z,11.20
2022-11-09T17:14:01.899Z,11.20
2022-11-09T17:16:29.755Z,11.20
2022-11-09T17:18:58.652Z,11.20
2022-11-09T17:21:27.990Z,11.20
2022-11-09T17:23:56.877Z,11.20
2022-11-09T17:26:26.701Z,11.20
2022-11-09T17:28:56.098Z,11.20
2022-11-09T17:31:26.437Z,11.20
2022-11-09T17:33:59.849Z,11.10
2022-11-09T17:36:56.878Z,11.20
2022-11-09T17:39:16.604Z,11.10
2022-11-09T17:41:45.733Z,11.10
2022-11-09T17:44:13.516Z,11.10
2022-11-09T17:46:41.266Z,11.10
2022-11-09T17:49:10.397Z,11.10
2022-11-09T17:51:38.559Z,11.10
2022-11-09T17:54:06.457Z,11.00
2022-11-09T17:56:34.831Z,11.10
2022-11-09T17:59:05.093Z,11.00
2022-11-09T18:01:39.422Z,11.00
2022-11-09T18:04:10.015Z,11.00
2022-11-09T18:06:38.568Z,11.00
2022-11-09T18:11:54.883Z,11.00
2022-11-09T18:14:23.995Z,11.00
2022-11-09T18:16:51.961Z,11.00
2022-11-09T18:19:19.751Z,11.00
2022-11-09T18:21:47.948Z,10.90
2022-11-09T18:24:15.989Z,11.00
2022-11-09T18:26:43.798Z,10.90
2022-11-09T18:29:11.594Z,10.90
2022-11-09T18:31:40.747Z,10.90
2022-11-09T18:34:08.528Z,10.80
2022-11-09T18:36:36.295Z,10.90
2022-11-09T18:39:04.581Z,10.80
2022-11-09T18:41:32.445Z,10.80
2022-11-09T18:44:00.240Z,10.80
2022-11-09T18:46:33.113Z,10.80
2022-11-09T18:49:02.345Z,10.80
2022-11-09T18:51:30.207Z,10.80
2022-11-09T18:53:58.066Z,10.80
2022-11-09T18:56:26.546Z,10.80
2022-11-09T18:58:56.144Z,10.80
2022-11-09T19:01:25.544Z,10.80
2022-11-09T19:03:58.965Z,10.80
2022-11-09T19:06:29.260Z,10.80
2022-11-09T19:09:14.640Z,10.80
2022-11-09T19:11:42.949Z,10.80
2022-11-09T19:14:11.164Z,10.80
2022-11-09T19:16:38.975Z,10.80
2022-11-09T19:19:06.780Z,10.80
2022-11-09T19:21:39.916Z,10.70
2022-11-09T19:24:09.064Z,10.70
2022-11-09T19:26:36.845Z,10.70
2022-11-09T19:29:06.934Z,10.70
2022-11-09T19:31:35.805Z,10.70
2022-11-09T19:34:03.841Z,10.70
2022-11-09T19:36:34.625Z,10.70
2022-11-09T19:39:04.245Z,10.70
2022-11-09T19:41:32.536Z,10.70
2022-11-09T19:44:00.585Z,10.70
2022-11-09T19:46:31.936Z,10.70
2022-11-09T19:48:59.835Z,10.70
2022-11-09T19:51:29.392Z,10.70
2022-11-09T19:53:58.939Z,10.70
2022-11-09T19:56:30.225Z,10.70
2022-11-09T19:58:59.518Z,10.60
2022-11-09T20:01:27.820Z,10.70
2022-11-09T20:03:57.195Z,10.60
2022-11-09T20:06:25.745Z,10.60
2022-11-09T20:08:53.813Z,10.60
2022-11-09T20:11:44.012Z,10.60
2022-11-09T20:14:13.784Z,10.60
2022-11-09T20:16:44.379Z,10.60
2022-11-09T20:19:14.112Z,10.60
2022-11-09T20:21:42.588Z,10.60
2022-11-09T20:24:12.181Z,10.60
2022-11-09T20:26:40.838Z,10.60
2022-11-09T20:29:09.000Z,10.60
2022-11-09T20:31:38.172Z,10.60
2022-11-09T20:34:08.870Z,10.60
2022-11-09T20:36:36.666Z,10.60
2022-11-09T20:39:04.958Z,10.60
2022-11-09T20:41:33.243Z,10.60
2022-11-09T20:44:01.040Z,10.60
2022-11-09T20:46:35.373Z,10.60
2022-11-09T20:49:06.057Z,10.60
2022-11-09T20:51:33.876Z,10.60
2022-11-09T20:54:06.971Z,10.50
2022-11-09T20:56:35.478Z,10.60
2022-11-09T20:59:03.298Z,10.50
2022-11-09T21:01:31.172Z,10.60
2022-11-09T21:03:59.164Z,10.50
2022-11-09T21:06:28.429Z,10.50
2022-11-09T21:08:56.968Z,10.50
2022-11-09T21:11:28.556Z,10.50
2022-11-09T21:13:56.854Z,10.50
2022-11-09T21:16:25.005Z,10.50
2022-11-09T21:18:52.880Z,10.50
2022-11-09T21:21:22.896Z,10.50
2022-11-09T21:24:09.678Z,10.50
2022-11-09T21:26:55.195Z,10.50
2022-11-09T21:29:43.816Z,10.50
2022-11-09T21:32:12.352Z,10.50
2022-11-09T21:34:40.147Z,10.50
2022-11-09T21:37:08.179Z,10.60
2022-11-09T21:39:38.177Z,10.50
2022-11-09T21:42:07.315Z,10.60
2022-11-09T21:44:35.797Z,10.60
2022-11-09T21:47:04.243Z,10.50
2022-11-09T21:49:32.260Z,10.50
2022-11-09T21:52:00.582Z,10.50
2022-11-09T21:54:28.723Z,10.50
2022-11-09T21:56:58.031Z,10.50
2022-11-09T21:59:25.952Z,10.50
2022-11-09T22:01:53.754Z,10.50
2022-11-09T22:04:21.609Z,10.50
2022-11-09T22:06:49.439Z,10.50
2022-11-09T22:09:19.081Z,10.50
2022-11-09T22:12:04.459Z,10.50
2022-11-09T22:14:51.432Z,10.60
2022-11-09T22:17:19.260Z,10.50
2022-11-09T22:20:04.642Z,10.50
2022-11-09T22:22:33.815Z,10.50
2022-11-09T22:25:01.601Z,10.50
2022-11-09T22:27:30.893Z,10.50
2022-11-09T22:30:00.152Z,10.50
2022-11-09T22:32:28.035Z,10.50
2022-11-09T22:34:55.763Z,10.50
2022-11-09T22:37:23.586Z,10.50
2022-11-09T22:39:51.383Z,10.50
2022-11-09T22:42:19.172Z,10.50
2022-11-09T22:44:49.973Z,10.50
2022-11-09T22:47:19.108Z,10.50
2022-11-09T22:49:46.928Z,10.50
2022-11-09T22:52:14.785Z,10.50
2022-11-09T22:54:42.555Z,10.50
2022-11-09T22:57:10.420Z,10.50
2022-11-09T23:02:21.370Z,10.40
2022-11-09T23:04:49.084Z,10.40
2022-11-09T23:07:16.999Z,10.40
2022-11-09T23:09:44.809Z,10.40
2022-11-09T23:12:12.587Z,10.50
2022-11-09T23:14:58.194Z,10.40
2022-11-09T23:17:44.973Z,10.40
2022-11-09T23:20:13.158Z,10.40
2022-11-09T23:22:40.932Z,10.40
2022-11-09T23:25:27.964Z,10.40
2022-11-09T23:27:56.055Z,10.40
2022-11-09T23:30:24.273Z,10.40
2022-11-09T23:32:53.608Z,10.40
2022-11-09T23:35:21.416Z,10.40
2022-11-09T23:37:49.165Z,10.40
2022-11-09T23:40:17.471Z,10.40
2022-11-09T23:42:45.305Z,10.40
2022-11-09T23:45:13.145Z,10.40
2022-11-09T23:47:40.889Z,10.40
2022-11-09T23:50:10.508Z,10.40
2022-11-09T23:52:38.320Z,10.40
2022-11-09T23:55:06.849Z,10.40
2022-11-09T23:57:34.757Z,10.40
